Time;durP1;ratioP1;P1;durP2;ratioP2;P2;SDS_P1;SDS_P2;PMS_P1;PMS_P2;Temp;Humidity;BMP_temperature;BMP_pressure;BME280_temperature;BME280_humidity;BME280_pressure;Samples;Min_cycle;Max_cycle;Signal;HPM_P1;HPM_P2
2023/12/17 00:02:28;;;;;;;9.98;6.65;;;0.90;99.90;;;;;;7609362;19;20025;-81
2023/12/17 00:05:01;;;;;;;15.18;8.40;;;0.90;99.90;;;;;;7596289;19;20014;-80
2023/12/17 00:07:33;;;;;;;14.10;9.27;;;1.00;99.90;;;;;;7586411;19;20030;-80
2023/12/17 00:10:06;;;;;;;14.40;8.15;;;1.00;99.90;;;;;;7599452;19;20679;-81
2023/12/17 00:12:38;;;;;;;9.95;6.57;;;0.90;99.90;;;;;;7585344;19;20014;-82
2023/12/17 00:15:11;;;;;;;13.75;6.95;;;0.70;99.90;;;;;;7598612;19;20026;-81
2023/12/17 00:17:43;;;;;;;11.93;6.25;;;0.70;99.90;;;;;;7597247;19;20050;-82
2023/12/17 00:20:15;;;;;;;11.60;6.90;;;0.70;99.90;;;;;;7604139;19;20006;-83
2023/12/17 00:22:48;;;;;;;10.67;6.60;;;0.70;99.90;;;;;;7607751;19;20942;-83
2023/12/17 00:25:20;;;;;;;12.60;6.55;;;0.60;99.90;;;;;;7598736;19;20280;-83
2023/12/17 00:27:52;;;;;;;11.60;7.18;;;0.60;99.90;;;;;;7605955;19;20039;-82
2023/12/17 00:30:25;;;;;;;14.65;7.07;;;0.60;99.90;;;;;;7586212;19;20010;-81
2023/12/17 00:32:58;;;;;;;10.05;6.30;;;0.60;99.90;;;;;;7600662;19;20018;-80
2023/12/17 00:35:30;;;;;;;10.68;6.50;;;0.50;99.90;;;;;;7586639;19;20060;-82
2023/12/17 00:38:03;;;;;;;11.80;6.95;;;0.50;99.90;;;;;;7586077;19;20398;-81
2023/12/17 00:40:35;;;;;;;11.98;7.45;;;0.60;99.90;;;;;;7596359;19;20378;-82
2023/12/17 00:43:07;;;;;;;11.40;7.13;;;0.60;99.90;;;;;;7606020;19;20021;-81
2023/12/17 00:45:40;;;;;;;12.77;6.85;;;0.50;99.90;;;;;;7595827;19;20018;-81
2023/12/17 00:48:12;;;;;;;10.10;5.97;;;0.40;99.90;;;;;;7601172;19;20043;-80
2023/12/17 15:43:19;;;;;;;10.60;5.68;;;;;;;;;;7561721;19;20438;-78
2023/12/17 15:45:52;;;;;;;10.63;5.78;;;;;;;;;;7561379;19;20604;-77
2023/12/17 15:48:24;;;;;;;7.83;4.37;;;;;;;;;;7551847;19;20029;-77
2023/12/17 15:50:58;;;;;;;9.25;4.75;;;;;;;;;;7566540;19;20081;-80
2023/12/17 15:53:31;;;;;;;9.63;5.15;;;4.70;99.90;;;;;;7566159;19;20094;-77
2023/12/17 15:56:04;;;;;;;9.07;4.47;;;4.10;99.90;;;;;;7560756;19;20250;-79
2023/12/17 15:58:37;;;;;;;10.00;5.18;;;4.10;99.90;;;;;;7566062;19;20546;-77
2023/12/17 16:01:12;;;;;;;8.30;4.70;;;4.20;99.90;;;;;;7557787;19;20006;-74
2023/12/17 16:03:44;;;;;;;9.50;5.00;;;4.20;99.90;;;;;;7564647;19;20029;-78
2023/12/17 16:06:20;;;;;;;8.05;4.72;;;4.10;99.90;;;;;;7578054;19;20328;-77
2023/12/17 16:08:53;;;;;;;8.65;5.60;;;4.10;99.90;;;;;;7551487;19;20022;-77
2023/12/17 16:11:28;;;;;;;6.90;4.80;;;4.10;99.90;;;;;;7564430;19;20025;-79
2023/12/17 16:14:02;;;;;;;7.22;4.80;;;4.00;99.90;;;;;;7580336;19;20017;-77
2023/12/17 16:16:34;;;;;;;10.25;5.32;;;3.90;99.90;;;;;;7557556;19;20018;-77
2023/12/17 16:19:06;;;;;;;9.07;5.30;;;3.90;99.90;;;;;;7567705;19;20018;-78
2023/12/17 16:21:39;;;;;;;8.10;4.90;;;3.90;99.90;;;;;;7567603;19;20010;-78
2023/12/17 16:24:12;;;;;;;6.38;4.28;;;3.80;99.90;;;;;;7567113;19;20030;-77
2023/12/17 16:26:44;;;;;;;9.15;5.10;;;3.70;99.90;;;;;;7545296;19;20014;-77
2023/12/17 16:29:18;;;;;;;7.47;4.75;;;3.80;99.90;;;;;;7597742;19;20089;-78
2023/12/17 16:31:51;;;;;;;8.93;4.97;;;3.60;99.90;;;;;;7556802;19;20017;-79
2023/12/17 16:34:23;;;;;;;10.73;5.70;;;3.60;99.90;;;;;;7574133;19;20021;-77
2023/12/17 16:36:56;;;;;;;10.38;6.13;;;3.60;99.90;;;;;;7569541;19;20018;-77
2023/12/17 16:39:28;;;;;;;12.93;6.95;;;3.50;99.90;;;;;;7557195;19;20020;-77
2023/12/17 16:42:01;;;;;;;11.95;6.75;;;3.50;99.90;;;;;;7567964;19;20017;-77
2023/12/17 16:44:33;;;;;;;13.82;6.88;;;3.40;99.90;;;;;;7551617;19;21142;-77
2023/12/17 16:47:05;;;;;;;12.88;7.18;;;3.40;99.90;;;;;;7555438;19;22775;-76
2023/12/17 16:49:38;;;;;;;9.65;6.18;;;3.30;99.90;;;;;;7545928;19;20040;-78
2023/12/17 16:52:26;;;;;;;12.70;7.10;;;3.30;99.90;;;;;;7560295;19;20377;-76
2023/12/17 16:54:59;;;;;;;11.18;5.63;;;3.30;99.90;;;;;;7518575;19;21378;-73
2023/12/17 16:57:32;;;;;;;12.10;5.87;;;3.30;99.90;;;;;;7541515;19;20817;-75
2023/12/17 17:00:05;;;;;;;11.00;6.82;;;;;;;;;;7504190;19;20329;-75
2023/12/17 17:02:39;;;;;;;12.85;6.53;;;;;;;;;;7517118;19;20051;-74
2023/12/17 17:05:12;;;;;;;18.10;9.52;;;;;;;;;;7552016;19;20086;-75
2023/12/17 17:07:47;;;;;;;15.18;8.60;;;;;;;;;;7547345;19;20023;-74
2023/12/17 19:18:51;;;;;;;48.20;25.02;;;0.60;99.90;;;;;;7601717;19;20355;-75
2023/12/17 19:21:24;;;;;;;57.65;28.65;;;0.50;99.90;;;;;;7596879;19;21423;-75
2023/12/17 19:24:00;;;;;;;55.88;29.55;;;0.60;99.90;;;;;;7584926;19;20006;-73
2023/12/17 19:26:32;;;;;;;48.38;27.17;;;0.70;99.90;;;;;;7582768;19;20511;-75
2023/12/17 19:29:04;;;;;;;57.35;29.42;;;0.70;99.90;;;;;;7558165;19;20044;-76
2023/12/17 19:31:40;;;;;;;71.30;35.65;;;0.80;99.90;;;;;;7561957;19;20018;-75
2023/12/17 19:34:13;;;;;;;69.63;38.50;;;0.80;99.90;;;;;;7617186;19;20010;-77
2023/12/17 19:36:48;;;;;;;64.88;35.05;;;1.00;99.90;;;;;;7605879;19;20121;-76
2023/12/17 19:39:22;;;;;;;60.65;34.40;;;1.00;99.90;;;;;;7589920;19;20006;-75
2023/12/17 19:41:56;;;;;;;66.47;34.15;;;1.00;99.90;;;;;;7598547;19;20018;-76
2023/12/17 19:44:28;;;;;;;58.97;32.72;;;1.10;99.90;;;;;;7609561;19;20025;-76
2023/12/17 19:47:01;;;;;;;62.25;34.08;;;1.10;99.90;;;;;;7582278;19;20021;-77
2023/12/17 19:49:42;;;;;;;63.05;35.45;;;1.10;99.90;;;;;;7584382;19;20035;-75
2023/12/17 19:52:18;;;;;;;62.38;36.22;;;1.10;99.90;;;;;;7593855;19;20730;-74
2023/12/17 19:54:51;;;;;;;63.97;35.15;;;1.10;99.90;;;;;;7592761;19;20015;-78
2023/12/17 19:57:25;;;;;;;76.03;40.38;;;1.10;99.90;;;;;;7573979;19;20014;-76
2023/12/17 19:59:59;;;;;;;104.90;49.97;;;1.10;99.90;;;;;;7571445;19;20635;-76
2023/12/17 20:02:33;;;;;;;87.72;45.20;;;1.30;99.90;;;;;;7584326;19;20014;-75
2023/12/17 20:05:09;;;;;;;76.28;42.38;;;1.30;99.90;;;;;;7598446;19;20802;-75
2023/12/17 20:07:43;;;;;;;75.32;41.08;;;1.30;99.90;;;;;;7594104;19;20579;-75
2023/12/17 20:10:17;;;;;;;83.47;46.88;;;1.40;99.90;;;;;;7602665;19;20038;-76
2023/12/17 20:12:51;;;;;;;74.90;43.70;;;1.40;99.90;;;;;;7609393;19;20014;-75
2023/12/17 20:15:24;;;;;;;76.45;41.55;;;1.30;99.90;;;;;;7587460;19;20006;-76
2023/12/17 20:17:59;;;;;;;67.32;38.45;;;1.30;99.90;;;;;;7614140;19;20025;-76
2023/12/17 20:20:35;;;;;;;59.30;33.60;;;1.20;99.90;;;;;;7607463;19;20006;-76
2023/12/17 20:23:07;;;;;;;61.88;36.15;;;1.30;99.90;;;;;;7602828;19;20040;-75
2023/12/17 20:25:40;;;;;;;62.72;35.90;;;1.30;99.90;;;;;;7613024;19;20010;-75
2023/12/17 20:28:12;;;;;;;73.35;39.00;;;1.20;99.90;;;;;;7544595;19;20021;-75
2023/12/17 20:30:46;;;;;;;75.63;40.63;;;1.20;99.90;;;;;;7510948;19;20939;-75
2023/12/17 20:33:20;;;;;;;70.40;39.85;;;1.10;99.90;;;;;;7552786;19;20018;-75
